createdAt,value
2023-02-14T00:01:20.681Z,5.20
2023-02-14T00:03:49.378Z,4.90
2023-02-14T00:06:16.966Z,5.30
2023-02-14T00:08:46.824Z,5.23
2023-02-14T00:11:14.423Z,5.40
2023-02-14T00:14:01.578Z,5.33
2023-02-14T00:16:28.789Z,5.30
2023-02-14T00:19:05.818Z,4.33
2023-02-14T00:21:37.587Z,4.40
2023-02-14T00:24:09.625Z,5.27
2023-02-14T00:26:40.006Z,4.70
2023-02-14T00:29:10.458Z,4.90
2023-02-14T00:31:38.145Z,5.30
2023-02-14T00:34:06.786Z,5.10
2023-02-14T00:36:34.936Z,4.20
2023-02-14T00:39:07.121Z,4.57
2023-02-14T00:41:34.377Z,4.80
2023-02-14T00:44:01.984Z,4.90
2023-02-14T00:46:29.274Z,3.37
2023-02-14T00:48:56.567Z,3.80
2023-02-14T00:51:23.792Z,3.63
2023-02-14T00:53:51.871Z,3.97
2023-02-14T00:56:19.796Z,3.97
2023-02-14T00:58:47.201Z,4.37
2023-02-14T01:01:16.059Z,4.47
2023-02-14T01:03:43.290Z,6.07
2023-02-14T01:06:10.492Z,4.67
2023-02-14T01:08:37.703Z,5.10
2023-02-14T01:11:17.082Z,4.90
2023-02-14T01:13:45.402Z,4.93
2023-02-14T01:16:15.634Z,4.67
2023-02-14T01:18:43.526Z,4.70
2023-02-14T01:21:24.707Z,4.90
2023-02-14T01:23:55.752Z,4.60
2023-02-14T01:26:24.282Z,5.10
2023-02-14T01:28:51.556Z,4.60
2023-02-14T01:31:30.145Z,4.40
2023-02-14T01:33:58.525Z,3.60
2023-02-14T01:36:29.739Z,3.73
2023-02-14T01:39:01.099Z,3.63
2023-02-14T01:41:31.113Z,4.37
2023-02-14T01:44:05.978Z,3.33
2023-02-14T01:46:37.039Z,4.23
2023-02-14T01:49:13.644Z,4.33
2023-02-14T01:51:52.193Z,4.10
2023-02-14T01:54:20.652Z,4.83
2023-02-14T01:56:50.960Z,4.30
2023-02-14T01:59:24.086Z,5.13
2023-02-14T02:01:53.415Z,4.27
2023-02-14T02:04:30.688Z,4.50
2023-02-14T02:07:01.442Z,4.80
2023-02-14T02:09:39.142Z,4.10
2023-02-14T02:12:06.406Z,4.70
2023-02-14T02:14:34.223Z,4.80
2023-02-14T02:17:07.155Z,4.47
2023-02-14T02:19:46.254Z,4.13
2023-02-14T02:22:28.920Z,4.33
2023-02-14T02:25:22.100Z,4.07
2023-02-14T02:28:13.758Z,4.60
2023-02-14T02:30:56.162Z,5.43
2023-02-14T02:33:54.151Z,4.17
2023-02-14T02:36:46.135Z,4.67
2023-02-14T02:39:42.119Z,3.97
2023-02-14T02:42:27.805Z,4.90
2023-02-14T02:45:15.701Z,4.17
2023-02-14T02:47:50.570Z,4.10
2023-02-14T02:50:55.889Z,3.90
2023-02-14T02:54:07.816Z,4.27
2023-02-14T02:56:46.177Z,4.17
2023-02-14T02:59:35.902Z,4.93
2023-02-14T03:02:16.350Z,5.93
2023-02-14T03:04:53.108Z,5.13
2023-02-14T03:07:35.639Z,5.03
2023-02-14T03:10:13.400Z,5.30
2023-02-14T03:12:57.378Z,5.17
2023-02-14T03:16:35.108Z,5.73
2023-02-14T03:19:36.728Z,5.43
2023-02-14T03:22:27.958Z,5.73
2023-02-14T03:25:20.082Z,5.40
2023-02-14T03:28:02.660Z,5.00
2023-02-14T03:30:40.437Z,5.40
2023-02-14T03:33:36.617Z,5.60
2023-02-14T03:36:12.928Z,4.87
2023-02-14T03:38:49.043Z,5.00
2023-02-14T03:41:28.703Z,5.30
2023-02-14T03:44:00.884Z,5.10
2023-02-14T03:46:34.653Z,4.67
2023-02-14T03:49:06.829Z,4.50
2023-02-14T03:51:36.077Z,4.33
2023-02-14T03:54:07.691Z,4.80
2023-02-14T03:56:44.618Z,4.90
2023-02-14T03:59:23.947Z,4.13
2023-02-14T04:01:56.724Z,4.90
2023-02-14T04:04:27.560Z,4.73
2023-02-14T04:06:55.180Z,4.50
2023-02-14T04:09:22.325Z,4.30
2023-02-14T04:11:50.569Z,4.07
2023-02-14T04:14:17.890Z,4.97
2023-02-14T04:17:04.107Z,4.10
2023-02-14T04:19:31.334Z,3.90
2023-02-14T04:21:58.446Z,4.97
2023-02-14T04:24:25.660Z,5.30
2023-02-14T04:27:10.015Z,4.67
2023-02-14T04:29:48.787Z,4.80
2023-02-14T04:32:19.545Z,4.13
2023-02-14T04:34:47.556Z,4.67
2023-02-14T04:37:17.791Z,5.30
2023-02-14T04:39:45.041Z,6.30
2023-02-14T04:42:12.651Z,7.57
2023-02-14T04:44:40.062Z,5.87
2023-02-14T04:47:08.283Z,4.70
2023-02-14T04:49:36.370Z,4.80
2023-02-14T04:52:03.931Z,5.13
2023-02-14T04:54:31.100Z,4.73
2023-02-14T04:56:58.357Z,4.60
2023-02-14T04:59:25.974Z,5.40
2023-02-14T05:01:53.773Z,5.87
2023-02-14T05:04:21.048Z,5.77
2023-02-14T05:06:48.487Z,5.97
2023-02-14T05:09:15.679Z,5.50
2023-02-14T05:11:42.912Z,6.70
2023-02-14T05:14:10.279Z,5.77
2023-02-14T05:16:38.494Z,6.53
2023-02-14T05:19:05.698Z,6.60
2023-02-14T05:21:33.322Z,6.77
2023-02-14T05:24:01.377Z,7.13
2023-02-14T05:26:29.015Z,6.87
2023-02-14T05:28:56.697Z,7.70
2023-02-14T05:31:24.002Z,6.50
2023-02-14T05:33:51.200Z,7.10
2023-02-14T05:36:18.339Z,7.50
2023-02-14T05:38:45.532Z,7.30
2023-02-14T05:41:12.691Z,6.83
2023-02-14T05:43:40.515Z,7.10
2023-02-14T05:46:07.786Z,6.77
2023-02-14T05:48:35.071Z,7.00
2023-02-14T05:51:07.097Z,7.07
2023-02-14T05:53:34.495Z,7.77
2023-02-14T05:56:02.279Z,8.67
2023-02-14T05:58:29.414Z,7.23
2023-02-14T06:00:58.323Z,7.50
2023-02-14T06:03:25.774Z,9.80
2023-02-14T06:05:53.215Z,8.67
2023-02-14T06:08:20.414Z,8.10
2023-02-14T06:10:47.585Z,8.37
2023-02-14T06:13:14.857Z,8.47
2023-02-14T06:15:42.039Z,10.20
2023-02-14T06:18:09.341Z,9.70
2023-02-14T06:20:36.623Z,8.60
2023-02-14T06:23:04.037Z,8.80
2023-02-14T06:25:31.390Z,8.53
2023-02-14T06:27:59.301Z,9.70
2023-02-14T06:30:26.870Z,10.23
2023-02-14T06:32:54.182Z,12.33
2023-02-14T06:35:21.377Z,9.40
2023-02-14T06:37:48.804Z,8.37
2023-02-14T06:40:16.300Z,8.50
2023-02-14T06:42:43.617Z,9.00
2023-02-14T06:45:11.517Z,8.20
2023-02-14T06:47:38.698Z,9.40
2023-02-14T06:50:06.702Z,8.50
2023-02-14T06:52:34.199Z,9.50
2023-02-14T06:55:01.556Z,11.40
2023-02-14T06:57:28.732Z,10.80
2023-02-14T06:59:55.827Z,9.63
2023-02-14T07:02:25.024Z,8.27
2023-02-14T07:04:52.410Z,9.67
2023-02-14T07:07:19.681Z,8.33
2023-02-14T07:09:46.834Z,9.50
2023-02-14T07:12:13.937Z,10.60
2023-02-14T07:14:41.185Z,10.27
2023-02-14T07:17:08.433Z,10.37
2023-02-14T07:19:35.778Z,8.77
2023-02-14T07:22:02.977Z,8.43
2023-02-14T07:24:30.158Z,8.80
2023-02-14T07:26:57.533Z,8.20
2023-02-14T07:29:24.883Z,10.10
2023-02-14T07:31:52.210Z,8.10
2023-02-14T07:34:19.540Z,10.23
2023-02-14T07:36:46.952Z,10.70
2023-02-14T07:39:14.323Z,9.97
2023-02-14T07:41:41.526Z,10.87
2023-02-14T07:44:08.737Z,11.27
2023-02-14T07:46:35.892Z,12.17
2023-02-14T07:49:03.317Z,10.90
2023-02-14T07:51:30.581Z,10.03
2023-02-14T07:53:57.732Z,11.23
2023-02-14T07:56:24.991Z,10.60
2023-02-14T07:58:52.148Z,11.10
2023-02-14T08:01:19.511Z,10.97
2023-02-14T08:03:49.696Z,11.70
2023-02-14T08:06:17.843Z,11.40
2023-02-14T08:08:46.114Z,10.10
2023-02-14T08:11:33.778Z,11.67
2023-02-14T08:14:01.621Z,10.07
2023-02-14T08:16:28.820Z,10.97
2023-02-14T08:18:56.045Z,10.60
2023-02-14T08:21:23.560Z,10.50
2023-02-14T08:23:50.779Z,11.60
2023-02-14T08:26:17.945Z,10.47
2023-02-14T08:28:45.156Z,10.80
2023-02-14T08:31:12.776Z,11.43
2023-02-14T08:33:39.967Z,10.70
2023-02-14T08:36:07.301Z,11.40
2023-02-14T08:38:34.509Z,10.20
2023-02-14T08:41:05.039Z,10.27
2023-02-14T08:43:34.485Z,11.23
2023-02-14T08:46:02.196Z,11.57
2023-02-14T08:48:29.802Z,11.20
2023-02-14T08:50:57.348Z,10.07
2023-02-14T08:53:24.626Z,10.43
2023-02-14T08:55:52.581Z,9.80
2023-02-14T08:58:19.808Z,8.40
2023-02-14T09:00:47.050Z,9.33
2023-02-14T09:03:14.295Z,9.07
2023-02-14T09:05:41.520Z,7.57
2023-02-14T09:08:08.640Z,7.30
2023-02-14T09:10:36.749Z,9.60
2023-02-14T09:13:03.920Z,12.20
2023-02-14T09:15:31.241Z,14.43
2023-02-14T09:17:58.406Z,13.60
2023-02-14T09:20:26.212Z,11.50
2023-02-14T09:22:57.039Z,11.30
2023-02-14T09:25:24.314Z,11.27
2023-02-14T09:27:51.463Z,9.90
2023-02-14T09:30:18.658Z,9.60
2023-02-14T09:32:45.842Z,9.70
2023-02-14T09:35:12.978Z,9.27
2023-02-14T09:37:40.117Z,9.47
2023-02-14T09:40:07.945Z,9.67
2023-02-14T09:42:54.196Z,9.13
2023-02-14T09:45:27.690Z,8.30
2023-02-14T09:47:57.763Z,8.80
2023-02-14T09:50:35.266Z,8.27
2023-02-14T09:53:27.274Z,8.60
2023-02-14T09:55:58.198Z,9.33
2023-02-14T09:58:48.185Z,8.87
2023-02-14T10:01:40.400Z,8.23
2023-02-14T10:04:13.408Z,8.37
2023-02-14T10:06:49.415Z,8.83
2023-02-14T10:09:43.138Z,9.63
2023-02-14T10:12:26.539Z,7.63
2023-02-14T10:14:57.293Z,9.40
2023-02-14T10:18:00.468Z,9.10
2023-02-14T10:20:42.182Z,9.00
2023-02-14T10:23:32.071Z,9.00
2023-02-14T10:26:16.265Z,9.70
2023-02-14T10:28:50.470Z,9.73
2023-02-14T10:31:44.390Z,9.50
2023-02-14T10:34:33.048Z,8.60
2023-02-14T10:37:25.724Z,8.37
2023-02-14T10:40:46.381Z,9.20
2023-02-14T10:43:15.419Z,8.90
2023-02-14T10:45:48.769Z,11.20
2023-02-14T10:48:31.039Z,10.03
2023-02-14T10:51:36.511Z,8.53
2023-02-14T10:54:25.934Z,10.53
2023-02-14T10:56:53.090Z,8.17
2023-02-14T10:59:30.775Z,8.10
2023-02-14T11:02:00.581Z,7.80
2023-02-14T11:04:30.134Z,7.20
2023-02-14T11:06:57.876Z,7.07
2023-02-14T11:09:25.035Z,7.07
2023-02-14T11:11:56.280Z,7.20
2023-02-14T11:14:33.255Z,6.50
2023-02-14T11:17:02.232Z,6.60
2023-02-14T11:19:37.192Z,6.97
2023-02-14T11:22:04.940Z,6.97
2023-02-14T11:24:38.918Z,7.07
2023-02-14T11:27:12.285Z,6.53
2023-02-14T11:29:39.363Z,7.90
2023-02-14T11:32:09.689Z,6.00
2023-02-14T11:34:41.106Z,6.70
2023-02-14T11:37:44.235Z,6.60
2023-02-14T11:40:27.808Z,6.60
2023-02-14T11:43:12.734Z,6.87
2023-02-14T11:45:43.256Z,7.73
2023-02-14T11:48:22.373Z,6.30
2023-02-14T11:51:14.062Z,6.20
2023-02-14T11:53:50.709Z,6.13
2023-02-14T11:56:20.520Z,5.90
2023-02-14T11:58:53.430Z,6.87
2023-02-14T12:01:25.056Z,6.77
2023-02-14T12:03:54.561Z,6.83
2023-02-14T12:06:27.903Z,8.30
2023-02-14T12:09:22.229Z,7.07
2023-02-14T12:11:59.645Z,6.57
2023-02-14T12:14:32.677Z,6.30
2023-02-14T12:17:12.007Z,6.30
2023-02-14T12:19:52.237Z,6.30
2023-02-14T12:22:26.333Z,6.03
2023-02-14T12:25:02.623Z,6.70
2023-02-14T12:27:37.855Z,6.33
2023-02-14T12:30:14.284Z,6.47
2023-02-14T12:32:53.911Z,5.80
2023-02-14T12:35:40.615Z,6.60
2023-02-14T12:38:20.864Z,5.73
2023-02-14T12:41:02.378Z,6.67
2023-02-14T12:43:53.675Z,6.37
2023-02-14T12:47:09.013Z,6.07
2023-02-14T12:49:39.159Z,6.80
2023-02-14T12:52:28.141Z,6.57
2023-02-14T12:55:19.640Z,6.90
2023-02-14T12:58:14.069Z,6.37
2023-02-14T13:01:00.280Z,5.90
2023-02-14T13:03:45.743Z,6.77
2023-02-14T13:06:37.449Z,7.10
2023-02-14T13:09:13.452Z,6.40
2023-02-14T13:12:01.840Z,5.83
2023-02-14T13:14:41.129Z,6.33
2023-02-14T13:17:13.937Z,6.03
2023-02-14T13:20:02.130Z,6.30
2023-02-14T13:22:31.100Z,6.80
2023-02-14T13:25:03.923Z,6.23
2023-02-14T13:27:38.717Z,6.47
2023-02-14T13:30:15.613Z,6.43
2023-02-14T13:32:46.954Z,6.50
2023-02-14T13:35:29.146Z,6.10
2023-02-14T13:38:02.529Z,6.87
2023-02-14T13:40:31.425Z,6.27
2023-02-14T13:43:00.969Z,7.57
2023-02-14T13:45:39.860Z,6.40
2023-02-14T13:48:26.255Z,7.67
2023-02-14T13:50:58.147Z,6.73
2023-02-14T13:53:47.857Z,7.87
2023-02-14T13:56:15.459Z,6.77
2023-02-14T13:58:56.194Z,7.20
2023-02-14T14:01:37.549Z,6.60
2023-02-14T14:04:26.212Z,7.10
2023-02-14T14:07:05.828Z,6.77
2023-02-14T14:09:42.368Z,7.00
2023-02-14T14:12:27.755Z,7.47
2023-02-14T14:15:07.154Z,7.17
2023-02-14T14:17:46.062Z,7.27
2023-02-14T14:20:16.166Z,6.70
2023-02-14T14:22:48.676Z,7.33
2023-02-14T14:25:34.202Z,6.60
2023-02-14T14:28:01.660Z,6.67
2023-02-14T14:30:33.043Z,6.83
2023-02-14T14:33:30.536Z,6.23
2023-02-14T14:36:02.442Z,7.23
2023-02-14T14:38:31.437Z,6.53
2023-02-14T14:41:01.030Z,6.40
2023-02-14T14:43:36.549Z,6.80
2023-02-14T14:46:04.957Z,6.87
2023-02-14T14:48:47.138Z,7.13
2023-02-14T14:51:29.834Z,6.20
2023-02-14T14:54:17.071Z,5.70
2023-02-14T14:56:57.119Z,7.10
2023-02-14T14:59:35.944Z,5.57
2023-02-14T15:02:05.516Z,6.57
2023-02-14T15:04:35.407Z,6.00
2023-02-14T15:07:27.628Z,6.30
2023-02-14T15:09:54.763Z,6.43
2023-02-14T15:12:43.067Z,6.27
2023-02-14T15:15:12.825Z,6.90
2023-02-14T15:17:42.181Z,6.83
2023-02-14T15:20:23.633Z,7.10
2023-02-14T15:22:52.897Z,7.23
2023-02-14T15:25:27.507Z,8.27
2023-02-14T15:27:54.683Z,9.63
2023-02-14T15:30:23.989Z,10.50
2023-02-14T15:32:52.253Z,9.67
2023-02-14T15:35:26.191Z,7.60
2023-02-14T15:37:55.814Z,9.17
2023-02-14T15:40:29.417Z,9.67
2023-02-14T15:43:00.746Z,8.60
2023-02-14T15:45:30.897Z,7.43
2023-02-14T15:48:05.456Z,8.97
2023-02-14T15:50:35.386Z,7.93
2023-02-14T15:53:31.409Z,8.63
2023-02-14T15:56:05.206Z,7.70
2023-02-14T15:58:34.003Z,6.53
2023-02-14T16:01:01.841Z,7.50
2023-02-14T16:03:43.750Z,6.47
2023-02-14T16:06:30.417Z,5.90
2023-02-14T16:08:58.266Z,5.80
2023-02-14T16:11:38.002Z,7.10
2023-02-14T16:14:37.910Z,6.33
2023-02-14T16:17:26.671Z,6.33
2023-02-14T16:19:53.882Z,5.53
2023-02-14T16:22:31.863Z,7.63
2023-02-14T16:24:59.464Z,6.47
2023-02-14T16:27:26.655Z,6.03
2023-02-14T16:29:53.904Z,5.40
2023-02-14T16:32:23.158Z,5.50
2023-02-14T16:34:50.902Z,6.13
2023-02-14T16:37:24.560Z,5.57
2023-02-14T16:39:54.512Z,5.53
2023-02-14T16:42:21.844Z,5.03
2023-02-14T16:44:50.322Z,6.07
2023-02-14T16:47:19.819Z,5.33
2023-02-14T16:49:47.207Z,6.17
2023-02-14T16:52:17.375Z,5.47
2023-02-14T16:54:44.618Z,5.80
2023-02-14T16:57:23.460Z,6.20
2023-02-14T16:59:51.344Z,6.27
2023-02-14T17:02:19.178Z,6.43
2023-02-14T17:04:46.553Z,6.60
2023-02-14T17:07:15.544Z,6.60
2023-02-14T17:09:47.487Z,6.17
2023-02-14T17:12:20.843Z,7.30
2023-02-14T17:14:51.752Z,6.63
2023-02-14T17:17:19.330Z,5.67
2023-02-14T17:19:46.579Z,6.23
2023-02-14T17:22:14.814Z,6.13
2023-02-14T17:24:42.070Z,6.70
2023-02-14T17:27:09.972Z,5.77
2023-02-14T17:29:37.150Z,7.17
2023-02-14T17:32:04.535Z,6.83
2023-02-14T17:34:32.848Z,6.10
2023-02-14T17:37:00.137Z,6.10
2023-02-14T17:39:27.364Z,6.50
2023-02-14T17:41:56.880Z,6.80
2023-02-14T17:44:24.242Z,6.30
2023-02-14T17:46:53.302Z,6.07
2023-02-14T17:49:20.560Z,5.77
2023-02-14T17:51:47.808Z,6.27
2023-02-14T17:54:14.991Z,6.00
2023-02-14T17:56:42.206Z,6.30
2023-02-14T17:59:09.355Z,5.63
2023-02-14T18:01:36.550Z,6.13
2023-02-14T18:04:05.623Z,6.27
2023-02-14T18:06:33.468Z,5.53
2023-02-14T18:09:04.575Z,6.00
2023-02-14T18:11:32.090Z,6.40
2023-02-14T18:13:59.898Z,7.20
2023-02-14T18:16:27.148Z,7.00
2023-02-14T18:18:55.023Z,6.50
2023-02-14T18:21:24.367Z,6.87
2023-02-14T18:23:52.047Z,7.43
2023-02-14T18:26:19.819Z,7.40
2023-02-14T18:28:47.051Z,7.57
2023-02-14T18:31:16.732Z,7.37
2023-02-14T18:33:44.797Z,7.50
2023-02-14T18:36:14.607Z,6.60
2023-02-14T18:38:43.910Z,6.50
2023-02-14T18:41:14.306Z,6.90
2023-02-14T18:43:42.030Z,7.37
2023-02-14T18:46:11.523Z,8.43
2023-02-14T18:48:39.144Z,7.10
2023-02-14T18:51:13.865Z,8.53
2023-02-14T18:53:43.021Z,9.80
2023-02-14T18:56:13.317Z,7.70
2023-02-14T18:58:42.417Z,7.33
2023-02-14T19:01:15.429Z,7.90
2023-02-14T19:03:43.228Z,6.83
2023-02-14T19:06:11.523Z,7.23
2023-02-14T19:08:40.291Z,7.80
2023-02-14T19:11:19.381Z,7.30
2023-02-14T19:13:52.501Z,8.00
2023-02-14T19:16:24.399Z,9.63
2023-02-14T19:18:53.358Z,9.20
2023-02-14T19:21:22.998Z,9.20
2023-02-14T19:23:50.753Z,9.77
2023-02-14T19:26:23.745Z,8.20
2023-02-14T19:28:56.218Z,8.43
2023-02-14T19:31:24.215Z,8.13
2023-02-14T19:33:51.869Z,7.87
2023-02-14T19:36:22.017Z,6.97
2023-02-14T19:38:51.805Z,7.80
2023-02-14T19:41:23.010Z,7.37
2023-02-14T19:43:51.470Z,7.13
2023-02-14T19:46:20.396Z,7.40
2023-02-14T19:48:48.885Z,7.43
2023-02-14T19:51:22.401Z,6.10
2023-02-14T19:53:51.483Z,6.33
2023-02-14T19:56:24.519Z,6.37
2023-02-14T19:58:52.500Z,6.80
2023-02-14T20:01:25.436Z,7.13
2023-02-14T20:03:53.687Z,7.67
2023-02-14T20:06:24.026Z,7.83
2023-02-14T20:08:51.485Z,9.10
2023-02-14T20:11:25.062Z,8.20
2023-02-14T20:13:54.751Z,7.23
2023-02-14T20:16:24.011Z,8.20
2023-02-14T20:18:51.327Z,7.43
2023-02-14T20:21:24.525Z,7.63
2023-02-14T20:23:52.291Z,7.40
2023-02-14T20:26:19.754Z,8.80
2023-02-14T20:28:48.888Z,8.07
2023-02-14T20:31:20.550Z,6.77
2023-02-14T20:33:51.581Z,6.00
2023-02-14T20:36:20.112Z,7.20
2023-02-14T20:38:47.482Z,5.80
2023-02-14T20:41:18.368Z,6.40
2023-02-14T20:43:45.598Z,6.03
2023-02-14T20:46:12.977Z,6.83
2023-02-14T20:48:40.143Z,5.30
2023-02-14T20:51:15.967Z,6.17
2023-02-14T20:53:44.995Z,7.07
2023-02-14T20:56:12.849Z,8.30
2023-02-14T20:58:40.487Z,8.00
2023-02-14T21:01:13.417Z,7.67
2023-02-14T21:03:42.610Z,8.20
2023-02-14T21:06:13.934Z,7.50
2023-02-14T21:08:42.686Z,7.87
2023-02-14T21:11:11.728Z,6.50
2023-02-14T21:13:38.869Z,6.97
2023-02-14T21:16:07.397Z,7.53
2023-02-14T21:18:36.051Z,6.73
2023-02-14T21:21:19.033Z,6.87
2023-02-14T21:23:49.274Z,8.77
2023-02-14T21:26:17.133Z,9.90
2023-02-14T21:28:44.953Z,8.83
2023-02-14T21:31:13.910Z,9.40
2023-02-14T21:33:41.181Z,9.30
2023-02-14T21:36:09.448Z,8.30
2023-02-14T21:38:36.910Z,8.50
2023-02-14T21:41:07.926Z,8.33
2023-02-14T21:43:37.451Z,9.37
2023-02-14T21:46:08.815Z,9.00
2023-02-14T21:48:54.517Z,8.80
2023-02-14T21:51:22.667Z,8.97
2023-02-14T21:53:51.118Z,8.80
2023-02-14T21:56:22.229Z,10.23
2023-02-14T21:58:51.655Z,7.87
2023-02-14T22:01:31.460Z,7.70
2023-02-14T22:03:59.759Z,7.63
2023-02-14T22:06:27.811Z,6.63
2023-02-14T22:08:57.305Z,6.10
2023-02-14T22:11:26.720Z,7.27
2023-02-14T22:13:54.562Z,8.37
2023-02-14T22:16:23.169Z,7.17
2023-02-14T22:18:50.815Z,7.70
2023-02-14T22:21:20.853Z,6.40
2023-02-14T22:23:48.447Z,7.43
2023-02-14T22:26:18.310Z,7.60
2023-02-14T22:28:47.719Z,7.10
2023-02-14T22:31:16.356Z,7.70
2023-02-14T22:33:44.546Z,6.90
2023-02-14T22:36:12.356Z,6.40
2023-02-14T22:38:39.862Z,6.30
2023-02-14T22:41:15.681Z,6.33
2023-02-14T22:43:43.511Z,7.10
2023-02-14T22:46:11.867Z,6.80
2023-02-14T22:48:39.916Z,6.80
2023-02-14T22:51:22.904Z,6.67
2023-02-14T22:53:52.128Z,6.17
2023-02-14T22:56:22.070Z,6.17
2023-02-14T22:58:52.752Z,7.43
2023-02-14T23:01:21.513Z,6.40
2023-02-14T23:03:52.498Z,6.87
2023-02-14T23:06:19.610Z,8.10
2023-02-14T23:08:47.924Z,8.30
2023-02-14T23:11:17.816Z,8.83
2023-02-14T23:14:03.875Z,9.10
2023-02-14T23:16:50.228Z,7.83
2023-02-14T23:19:41.636Z,8.63
2023-02-14T23:22:19.730Z,9.07
2023-02-14T23:24:52.193Z,8.97
2023-02-14T23:27:22.174Z,10.00
2023-02-14T23:29:49.582Z,7.80
2023-02-14T23:32:16.885Z,8.00
2023-02-14T23:34:45.246Z,7.50
2023-02-14T23:37:13.960Z,7.70
2023-02-14T23:39:41.689Z,7.53
2023-02-14T23:42:12.204Z,7.50
2023-02-14T23:44:40.038Z,7.80
2023-02-14T23:47:08.800Z,7.40
2023-02-14T23:49:37.354Z,8.20
2023-02-14T23:52:06.854Z,7.33
2023-02-14T23:54:34.890Z,8.00
2023-02-14T23:57:02.239Z,7.77
2023-02-14T23:59:29.802Z,7.53
